»·PEaware :: DAL821 KPDX-KSLC

DAL821 :: KPDX-KSLC

FLIGHT INFORMATION

Flight Status: Arrived
Operator:
Delta Air Lines
More flights by this operator :: More flights under this callsign
Pilot: Andre N. (13929)
Aircraft: BOEING 737-900
(B739)
More flights by this aircraft type
Origin: KPDX Portland Intl
United States
Destination: KSLC Salt Lake City Intl
United States
More flights between these airports :: More routes between these airports
Route: WHAMY4 IMB J15 BOI BYI SKEES5
File this flight plan on PilotEdge
Remarks:
Altitude:
(Current/Filed)
35,000ft
Speed:
(Current/Filed)
450kts
Departed: 11-Apr-18 07:57 AM
Arrived: 11-Apr-18 09:26 AM
Distance/Time
Traveled:
546nm/1:29
Distance/Time
To Go:
Arrived

Flight Plot

Page will automatically refresh every two minutes.

Flight plan parsing failed; only flown route is shown


Map Options




Map Legend


Flown Route
Filed Route
Departure Airport
Arrival Airport
Navaid (VOR, NDB)
Fix

Horizontal Profiles

Position Reports

Time Latitude Longitude Heading Altitude Ground
Speed
11-Apr-18 07:22 45.591158 -122.596784 58 37ft 0kts
11-Apr-18 07:23 45.591158 -122.596784 58 37ft 0kts
11-Apr-18 07:24 45.591158 -122.596784 58 37ft 0kts
11-Apr-18 07:25 45.591158 -122.596784 58 37ft 0kts
11-Apr-18 07:26 45.591158 -122.596784 58 37ft 0kts
11-Apr-18 07:27 45.591158 -122.596784 58 37ft 0kts
11-Apr-18 07:28 45.591158 -122.596784 58 37ft 0kts
11-Apr-18 07:29 45.591158 -122.596784 58 37ft 0kts
11-Apr-18 07:30 45.591158 -122.596784 58 37ft 0kts
11-Apr-18 07:31 45.591158 -122.596784 58 37ft 0kts
11-Apr-18 07:32 45.591158 -122.596784 58 37ft 0kts
11-Apr-18 07:33 45.591158 -122.596784 58 37ft 0kts
11-Apr-18 07:34 45.591158 -122.596784 58 37ft 0kts
11-Apr-18 07:35 45.591158 -122.596784 58 37ft 0kts
11-Apr-18 07:36 45.591158 -122.596784 58 37ft 0kts
11-Apr-18 07:37 45.591158 -122.596784 58 37ft 0kts
11-Apr-18 07:38 45.591158 -122.596784 58 37ft 0kts
11-Apr-18 07:39 45.591158 -122.596784 58 37ft 0kts
11-Apr-18 07:40 45.591158 -122.596784 58 37ft 0kts
11-Apr-18 07:41 45.591158 -122.596784 58 37ft 0kts
11-Apr-18 07:42 45.591158 -122.596784 58 37ft 0kts
11-Apr-18 07:43 45.591158 -122.596784 58 37ft 0kts
11-Apr-18 07:44 45.591134 -122.596841 58 37ft 2kts
11-Apr-18 07:45 45.590844 -122.597438 0 37ft 1kts
11-Apr-18 07:46 45.590443 -122.596916 298 37ft 1kts
11-Apr-18 07:47 45.590429 -122.596876 297 37ft 0kts
11-Apr-18 07:48 45.590429 -122.596876 297 37ft 0kts
11-Apr-18 07:49 45.590429 -122.596876 297 37ft 0kts
11-Apr-18 07:50 45.590429 -122.596876 297 37ft 0kts
11-Apr-18 07:51 45.590466 -122.596978 297 36ft 3kts
11-Apr-18 07:52 45.592741 -122.597975 29 36ft 15kts
11-Apr-18 07:53 45.595321 -122.600940 35 37ft 0kts
11-Apr-18 07:54 45.595321 -122.600940 35 37ft 0kts
11-Apr-18 07:55 45.595614 -122.600638 34 37ft 6kts
11-Apr-18 07:56 45.591676 -122.587536 118 37ft 138kts
11-Apr-18 07:57 45.577513 -122.519662 105 2792ft 200kts
11-Apr-18 07:58 45.563196 -122.448215 104 5709ft 218kts
11-Apr-18 07:59 45.548783 -122.369027 104 8385ft 245kts
11-Apr-18 08:00 45.524155 -122.306846 145 11137ft 245kts
11-Apr-18 08:01 45.463983 -122.242703 144 13465ft 297kts
11-Apr-18 08:02 45.419409 -122.186310 145 15339ft 320kts
11-Apr-18 08:03 45.353875 -122.103404 145 18000ft 341kts
11-Apr-18 08:04 45.282594 -122.013420 148 20378ft 365kts
11-Apr-18 08:05 45.227830 -121.885575 117 22566ft 416kts
11-Apr-18 08:06 45.196263 -121.758974 117 24287ft 430kts
11-Apr-18 08:07 45.155830 -121.600435 118 26212ft 447kts
11-Apr-18 08:08 45.113589 -121.437042 119 27985ft 462kts
11-Apr-18 08:09 45.076179 -121.293425 120 29470ft 469kts
11-Apr-18 08:10 45.031685 -121.123451 120 31251ft 469kts
11-Apr-18 08:11 44.986851 -120.953843 120 32809ft 469kts
11-Apr-18 08:12 44.949706 -120.814400 120 33945ft 469kts
11-Apr-18 08:13 44.904186 -120.644899 119 34961ft 474kts
11-Apr-18 08:14 44.861343 -120.487087 119 34932ft 500kts
11-Apr-18 08:15 44.814524 -120.315184 119 34911ft 509kts
11-Apr-18 08:16 44.765083 -120.134197 119 34913ft 509kts
11-Apr-18 08:17 44.721208 -119.974993 119 34915ft 510kts
11-Apr-18 08:18 44.669818 -119.789994 119 34945ft 510kts
11-Apr-18 08:19 44.617361 -119.606709 121 34947ft 508kts
11-Apr-18 08:20 44.564278 -119.438740 122 34949ft 506kts
11-Apr-18 08:21 44.510079 -119.271603 123 34937ft 505kts
11-Apr-18 08:22 44.452618 -119.093642 122 34938ft 506kts
11-Apr-18 08:23 44.397499 -118.922191 122 34940ft 506kts
11-Apr-18 08:24 44.340482 -118.744000 122 34942ft 507kts
11-Apr-18 08:25 44.283923 -118.566361 121 34945ft 507kts
11-Apr-18 08:26 44.228181 -118.390449 121 34947ft 508kts
11-Apr-18 08:27 44.182036 -118.243961 122 34934ft 507kts
11-Apr-18 08:28 44.127039 -118.068777 121 34962ft 507kts
11-Apr-18 08:29 44.072549 -117.894449 121 35016ft 507kts
11-Apr-18 08:30 44.019115 -117.722723 121 35021ft 509kts
11-Apr-18 08:31 43.964329 -117.545751 120 35023ft 509kts
11-Apr-18 08:32 43.909684 -117.368506 119 35029ft 509kts
11-Apr-18 08:33 43.863761 -117.218453 119 35021ft 501kts
11-Apr-18 08:34 43.810355 -117.043445 119 35022ft 502kts
11-Apr-18 08:35 43.757106 -116.868390 118 34997ft 510kts
11-Apr-18 08:36 43.705624 -116.698162 118 34999ft 511kts
11-Apr-18 08:37 43.652451 -116.521599 118 34976ft 507kts
11-Apr-18 08:38 43.609088 -116.377084 117 34978ft 506kts
11-Apr-18 08:39 43.566676 -116.235031 118 34990ft 506kts
11-Apr-18 08:40 43.504756 -116.069170 127 34995ft 498kts
11-Apr-18 08:41 43.437734 -115.913313 127 34995ft 499kts
11-Apr-18 08:42 43.369250 -115.752672 126 34974ft 499kts
11-Apr-18 08:43 43.309830 -115.612844 126 34971ft 499kts
11-Apr-18 08:44 43.241723 -115.452120 126 34975ft 503kts
11-Apr-18 08:45 43.176753 -115.298182 126 34961ft 503kts
11-Apr-18 08:46 43.110280 -115.140115 126 35011ft 504kts
11-Apr-18 08:47 43.042460 -114.978451 126 35018ft 500kts
11-Apr-18 08:48 42.974399 -114.815762 126 35047ft 500kts
11-Apr-18 08:49 42.908665 -114.658144 126 35049ft 500kts
11-Apr-18 08:50 42.843058 -114.500355 125 35056ft 505kts
11-Apr-18 08:51 42.776155 -114.338911 126 35055ft 504kts
11-Apr-18 08:52 42.716672 -114.194681 126 35045ft 501kts
11-Apr-18 08:53 42.651736 -114.037031 125 35048ft 501kts
11-Apr-18 08:54 42.584787 -113.874261 126 35049ft 500kts
11-Apr-18 08:55 42.492947 -113.743804 144 35051ft 484kts
11-Apr-18 08:56 42.397563 -113.618655 143 33125ft 487kts
11-Apr-18 08:57 42.301915 -113.492219 143 30913ft 491kts
11-Apr-18 08:58 42.205899 -113.365529 143 28745ft 495kts
11-Apr-18 08:59 42.117536 -113.249208 143 27491ft 498kts
11-Apr-18 09:00 42.022909 -113.124712 144 25855ft 463kts
11-Apr-18 09:01 41.933771 -113.008259 142 24440ft 448kts
11-Apr-18 09:02 41.863011 -112.916167 142 23320ft 440kts
11-Apr-18 09:03 41.809806 -112.847097 142 22533ft 433kts
11-Apr-18 09:04 41.725064 -112.737440 142 21366ft 424kts
11-Apr-18 09:05 41.642670 -112.631242 142 20212ft 415kts
11-Apr-18 09:06 41.564609 -112.531002 142 19115ft 407kts
11-Apr-18 09:07 41.479389 -112.437843 153 18524ft 395kts
11-Apr-18 09:08 41.392418 -112.376543 159 16251ft 333kts
11-Apr-18 09:09 41.332244 -112.334816 159 14667ft 316kts
11-Apr-18 09:10 41.256389 -112.281934 158 13204ft 313kts
11-Apr-18 09:11 41.207020 -112.246093 156 12839ft 301kts
11-Apr-18 09:12 41.133901 -112.190485 155 12230ft 298kts
11-Apr-18 09:13 41.068708 -112.142784 164 11724ft 277kts
11-Apr-18 09:14 40.994338 -112.126922 172 11319ft 278kts
11-Apr-18 09:15 40.918853 -112.111572 171 10970ft 284kts
11-Apr-18 09:16 40.851809 -112.101852 175 10964ft 284kts
11-Apr-18 09:17 40.774745 -112.093636 176 10474ft 279kts
11-Apr-18 09:18 40.707501 -112.087404 176 9801ft 267kts
11-Apr-18 09:19 40.640493 -112.076220 166 9236ft 252kts
11-Apr-18 09:20 40.587624 -112.032352 103 8448ft 240kts
11-Apr-18 09:21 40.611037 -111.966484 20 7492ft 230kts
11-Apr-18 09:22 40.667428 -111.969249 351 6444ft 228kts
11-Apr-18 09:23 40.726832 -111.967040 0 5152ft 228kts
11-Apr-18 09:24 40.778024 -111.973431 354 4327ft 181kts
11-Apr-18 09:25 40.800655 -111.976164 353 4234ft 9kts
11-Apr-18 09:26 40.801538 -111.978159 223 4234ft 9kts
11-Apr-18 09:27 40.798817 -111.978089 175 4234ft 25kts
11-Apr-18 09:28 40.792208 -111.977586 225 4235ft 10kts
11-Apr-18 09:29 40.791292 -111.982134 183 4235ft 16kts
11-Apr-18 09:30 40.788963 -111.984135 250 4235ft 5kts
11-Apr-18 09:31 40.788871 -111.984483 251 4235ft 0kts

Navigation Log

Ident Type
Flight plan parsing failed, navigation log unavailable